createdAt,value
2019-03-29T00:02:24.366Z,102080.00
2019-03-29T00:04:57.094Z,102086.00
2019-03-29T00:07:39.596Z,102102.00
2019-03-29T00:10:04.395Z,102086.00
2019-03-29T00:12:37.571Z,102107.00
2019-03-29T00:15:10.632Z,102106.00
2019-03-29T00:17:44.147Z,102081.00
2019-03-29T00:20:16.950Z,102084.00
2019-03-29T00:22:51.257Z,102075.00
2019-03-29T00:25:24.382Z,102078.00
2019-03-29T00:27:57.141Z,102078.00
2019-03-29T00:30:30.318Z,102083.00
2019-03-29T00:33:03.127Z,102083.00
2019-03-29T00:35:36.099Z,102082.00
2019-03-29T00:38:09.304Z,102078.00
2019-03-29T00:40:42.545Z,102083.00
2019-03-29T00:43:15.770Z,102072.00
2019-03-29T00:45:48.854Z,102066.00
2019-03-29T00:48:21.971Z,102069.00
2019-03-29T00:50:55.045Z,102070.00
2019-03-29T00:53:28.024Z,102064.00
2019-03-29T00:56:01.300Z,102064.00
2019-03-29T00:58:34.453Z,102060.00
2019-03-29T01:01:07.586Z,102053.00
2019-03-29T01:03:40.394Z,102055.00
2019-03-29T01:06:13.504Z,102056.00
2019-03-29T01:08:46.369Z,102055.00
2019-03-29T01:11:19.391Z,102063.00
2019-03-29T01:13:52.339Z,102052.00
2019-03-29T01:16:26.159Z,102059.00
2019-03-29T01:18:59.109Z,102054.00
2019-03-29T01:21:32.626Z,102048.00
2019-03-29T01:24:05.500Z,102040.00
2019-03-29T01:26:38.477Z,102041.00
2019-03-29T01:29:11.284Z,102039.00
2019-03-29T01:31:44.485Z,102036.00
2019-03-29T01:34:17.485Z,102032.00
2019-03-29T01:36:50.631Z,102030.00
2019-03-29T01:39:24.909Z,102027.00
2019-03-29T01:41:57.972Z,102026.00
2019-03-29T01:44:31.082Z,102024.00
2019-03-29T01:47:04.648Z,102022.00
2019-03-29T01:49:38.036Z,102032.00
2019-03-29T01:52:10.835Z,102032.00
2019-03-29T01:54:44.009Z,102024.00
2019-03-29T01:57:17.078Z,102018.00
2019-03-29T01:59:50.293Z,102024.00
2019-03-29T02:02:23.185Z,102021.00
2019-03-29T02:04:56.446Z,102035.00
2019-03-29T02:07:29.167Z,102023.00
2019-03-29T02:10:02.400Z,102024.00
2019-03-29T02:12:35.332Z,102016.00
2019-03-29T02:15:12.000Z,102016.00
2019-03-29T02:17:44.770Z,102011.00
2019-03-29T02:20:17.735Z,102012.00
2019-03-29T02:22:50.553Z,102015.00
2019-03-29T02:25:24.960Z,102015.00
2019-03-29T02:27:57.745Z,102022.00
2019-03-29T02:30:32.282Z,102014.00
2019-03-29T02:33:05.352Z,102023.00
2019-03-29T02:35:39.042Z,102034.00
2019-03-29T02:38:12.075Z,102022.00
2019-03-29T02:40:46.905Z,102026.00
2019-03-29T02:43:19.762Z,102018.00
2019-03-29T02:45:53.019Z,102023.00
2019-03-29T02:48:26.682Z,102026.00
2019-03-29T02:51:00.177Z,102015.00
2019-03-29T02:53:33.215Z,102029.00
2019-03-29T02:56:06.345Z,102017.00
2019-03-29T02:58:39.343Z,102011.00
2019-03-29T03:01:12.458Z,102020.00
2019-03-29T03:03:45.316Z,102024.00
2019-03-29T03:06:18.821Z,102017.00
2019-03-29T03:08:51.686Z,102027.00
2019-03-29T03:11:24.860Z,102018.00
2019-03-29T03:13:57.743Z,102019.00
2019-03-29T03:16:30.875Z,102012.00
2019-03-29T03:19:03.938Z,102009.00
2019-03-29T03:21:37.950Z,102011.00
2019-03-29T03:24:10.835Z,102002.00
2019-03-29T03:26:45.095Z,101995.00
2019-03-29T03:29:18.019Z,102001.00
2019-03-29T03:31:51.024Z,102006.00
2019-03-29T03:34:25.178Z,101998.00
2019-03-29T03:36:58.224Z,102008.00
2019-03-29T03:39:32.624Z,102003.00
2019-03-29T03:42:06.482Z,101994.00
2019-03-29T03:44:39.435Z,101997.00
2019-03-29T03:47:13.197Z,101988.00
2019-03-29T03:49:47.159Z,101999.00
2019-03-29T03:52:20.457Z,102009.00
2019-03-29T03:54:53.317Z,102012.00
2019-03-29T03:57:28.899Z,102005.00
2019-03-29T04:00:03.575Z,102006.00
2019-03-29T04:02:37.708Z,102005.00
2019-03-29T04:05:10.961Z,102003.00
2019-03-29T04:07:43.903Z,102005.00
2019-03-29T04:10:17.470Z,102011.00
2019-03-29T04:12:50.274Z,102005.00
2019-03-29T04:15:23.395Z,102012.00
2019-03-29T04:17:57.453Z,102011.00
2019-03-29T04:20:30.272Z,102010.00
2019-03-29T04:23:04.448Z,102008.00
2019-03-29T04:25:37.259Z,102011.00
2019-03-29T04:28:10.381Z,102011.00
2019-03-29T04:30:43.110Z,102014.00
2019-03-29T04:33:17.136Z,102013.00
2019-03-29T04:35:50.027Z,102013.00
2019-03-29T04:38:24.254Z,102010.00
2019-03-29T04:40:57.095Z,102006.00
2019-03-29T04:43:30.691Z,102011.00
2019-03-29T04:46:03.626Z,102018.00
2019-03-29T04:48:36.819Z,102011.00
2019-03-29T04:51:10.042Z,102008.00
2019-03-29T04:53:44.371Z,102016.00
2019-03-29T04:56:17.259Z,102014.00
2019-03-29T04:58:50.442Z,102016.00
2019-03-29T05:01:23.512Z,102014.00
2019-03-29T05:03:56.624Z,102023.00
2019-03-29T05:06:29.551Z,102023.00
2019-03-29T05:09:02.814Z,102022.00
2019-03-29T05:11:35.722Z,102021.00
2019-03-29T05:14:08.920Z,102024.00
2019-03-29T05:16:42.017Z,102015.00
2019-03-29T05:19:15.145Z,102026.00
2019-03-29T05:21:48.394Z,102022.00
2019-03-29T05:24:21.518Z,102027.00
2019-03-29T05:26:54.471Z,102027.00
2019-03-29T05:29:28.654Z,102037.00
2019-03-29T05:32:02.079Z,102046.00
2019-03-29T05:34:35.339Z,102036.00
2019-03-29T05:37:08.272Z,102044.00
2019-03-29T05:39:41.463Z,102038.00
2019-03-29T05:42:14.423Z,102041.00
2019-03-29T05:44:48.534Z,102049.00
2019-03-29T05:47:21.460Z,102049.00
2019-03-29T05:49:54.746Z,102049.00
2019-03-29T05:52:27.824Z,102049.00
2019-03-29T05:55:00.882Z,102048.00
2019-03-29T05:57:34.950Z,102052.00
2019-03-29T06:00:10.464Z,102056.00
2019-03-29T06:02:43.447Z,102049.00
2019-03-29T06:05:17.452Z,102060.00
2019-03-29T06:07:50.236Z,102067.00
2019-03-29T06:10:23.602Z,102071.00
2019-03-29T06:12:56.421Z,102068.00
2019-03-29T06:15:29.530Z,102057.00
2019-03-29T06:18:02.398Z,102076.00
2019-03-29T06:20:36.753Z,102081.00
2019-03-29T06:23:09.580Z,102076.00
2019-03-29T06:25:42.458Z,102082.00
2019-03-29T06:28:15.353Z,102077.00
2019-03-29T06:30:49.766Z,102082.00
2019-03-29T06:33:22.564Z,102084.00
2019-03-29T06:35:57.514Z,102088.00
2019-03-29T06:38:33.251Z,102088.00
2019-03-29T06:41:06.538Z,102083.00
2019-03-29T06:43:39.569Z,102083.00
2019-03-29T06:46:12.820Z,102082.00
2019-03-29T06:48:45.791Z,102083.00
2019-03-29T06:51:19.509Z,102080.00
2019-03-29T06:53:52.755Z,102085.00
2019-03-29T06:56:26.704Z,102099.00
2019-03-29T06:58:59.577Z,102095.00
2019-03-29T07:01:32.901Z,102110.00
2019-03-29T07:04:05.791Z,102108.00
2019-03-29T07:06:38.952Z,102105.00
2019-03-29T07:09:11.958Z,102118.00
2019-03-29T07:11:44.843Z,102109.00
2019-03-29T07:14:17.777Z,102109.00
2019-03-29T07:16:51.074Z,102110.00
2019-03-29T07:19:24.126Z,102119.00
2019-03-29T07:21:57.447Z,102126.00
2019-03-29T07:24:30.456Z,102126.00
2019-03-29T07:27:03.483Z,102122.00
2019-03-29T07:29:37.192Z,102129.00
2019-03-29T07:32:10.081Z,102132.00
2019-03-29T07:34:43.236Z,102129.00
2019-03-29T07:37:18.391Z,102126.00
2019-03-29T07:39:53.758Z,102136.00
2019-03-29T07:42:26.474Z,102143.00
2019-03-29T07:44:59.459Z,102142.00
2019-03-29T07:47:33.481Z,102142.00
2019-03-29T07:50:06.837Z,102141.00
2019-03-29T07:52:40.851Z,102150.00
2019-03-29T07:55:13.963Z,102150.00
2019-03-29T07:57:47.238Z,102150.00
2019-03-29T08:00:20.603Z,102151.00
2019-03-29T08:02:55.182Z,102150.00
2019-03-29T08:05:29.274Z,102154.00
2019-03-29T08:08:02.468Z,102146.00
2019-03-29T08:10:35.297Z,102149.00
2019-03-29T08:13:08.688Z,102149.00
2019-03-29T08:15:41.637Z,102151.00
2019-03-29T08:18:14.652Z,102156.00
2019-03-29T08:20:47.493Z,102159.00
2019-03-29T08:23:21.961Z,102162.00
2019-03-29T08:25:54.986Z,102162.00
2019-03-29T08:28:28.153Z,102169.00
2019-03-29T08:31:01.069Z,102177.00
2019-03-29T08:33:35.227Z,102183.00
2019-03-29T08:36:08.036Z,102179.00
2019-03-29T08:38:42.311Z,102187.00
2019-03-29T08:41:15.242Z,102191.00
2019-03-29T08:43:48.016Z,102203.00
2019-03-29T08:46:21.426Z,102193.00
2019-03-29T08:48:54.796Z,102199.00
2019-03-29T08:51:29.609Z,102203.00
2019-03-29T08:54:03.977Z,102206.00
2019-03-29T08:56:36.853Z,102205.00
2019-03-29T08:59:09.942Z,102204.00
2019-03-29T09:01:43.370Z,102205.00
2019-03-29T09:04:16.226Z,102194.00
2019-03-29T09:06:53.750Z,102207.00
2019-03-29T09:09:23.414Z,102205.00
2019-03-29T09:11:56.624Z,102201.00
2019-03-29T09:14:31.405Z,102203.00
2019-03-29T09:17:04.021Z,102209.00
2019-03-29T09:19:36.948Z,102204.00
2019-03-29T09:22:09.905Z,102208.00
2019-03-29T09:24:43.129Z,102202.00
2019-03-29T09:27:16.451Z,102203.00
2019-03-29T09:29:49.367Z,102205.00
2019-03-29T09:32:22.637Z,102200.00
2019-03-29T09:34:55.668Z,102204.00
2019-03-29T09:37:28.743Z,102205.00
2019-03-29T09:40:01.639Z,102203.00
2019-03-29T09:42:34.358Z,102201.00
2019-03-29T09:45:08.888Z,102185.00
2019-03-29T09:47:41.856Z,102192.00
2019-03-29T09:50:15.179Z,102194.00
2019-03-29T09:52:51.174Z,102191.00
2019-03-29T09:55:23.013Z,102198.00
2019-03-29T09:57:56.308Z,102191.00
2019-03-29T10:00:29.681Z,102184.00
2019-03-29T10:03:02.472Z,102187.00
2019-03-29T10:05:35.404Z,102198.00
2019-03-29T10:08:08.582Z,102201.00
2019-03-29T10:10:41.714Z,102202.00
2019-03-29T10:13:14.848Z,102195.00
2019-03-29T10:15:51.015Z,102191.00
2019-03-29T10:18:22.119Z,102206.00
2019-03-29T10:20:55.028Z,102204.00
2019-03-29T10:23:28.203Z,102198.00
2019-03-29T10:26:00.995Z,102208.00
2019-03-29T10:28:34.127Z,102201.00
2019-03-29T10:31:07.051Z,102207.00
2019-03-29T10:33:40.143Z,102195.00
2019-03-29T10:36:13.446Z,102200.00
2019-03-29T10:38:46.742Z,102199.00
2019-03-29T10:41:22.590Z,102197.00
2019-03-29T10:43:53.976Z,102212.00
2019-03-29T10:46:26.951Z,102198.00
2019-03-29T10:49:00.035Z,102197.00
2019-03-29T10:51:33.299Z,102194.00
2019-03-29T10:54:06.107Z,102194.00
2019-03-29T10:56:39.502Z,102191.00
2019-03-29T10:59:26.358Z,102191.00
2019-03-29T11:01:46.921Z,102186.00
2019-03-29T11:04:19.902Z,102185.00
2019-03-29T11:06:53.140Z,102185.00
2019-03-29T11:09:26.062Z,102183.00
2019-03-29T11:11:59.365Z,102178.00
2019-03-29T11:14:32.131Z,102179.00
2019-03-29T11:17:05.224Z,102179.00
2019-03-29T11:19:38.226Z,102180.00
2019-03-29T11:22:11.502Z,102177.00
2019-03-29T11:24:44.408Z,102171.00
2019-03-29T11:27:17.547Z,102172.00
2019-03-29T11:29:50.245Z,102169.00
2019-03-29T11:32:23.372Z,102174.00
2019-03-29T11:34:56.346Z,102171.00
2019-03-29T11:37:29.318Z,102161.00
2019-03-29T11:40:02.114Z,102165.00
2019-03-29T11:42:35.101Z,102182.00
2019-03-29T11:45:08.431Z,102170.00
2019-03-29T11:47:41.420Z,102173.00
2019-03-29T11:50:14.463Z,102177.00
2019-03-29T11:52:47.327Z,102178.00
2019-03-29T11:55:20.432Z,102191.00
2019-03-29T11:57:55.876Z,102193.00
2019-03-29T12:00:40.837Z,102200.00
2019-03-29T12:03:13.824Z,102204.00
2019-03-29T12:05:46.943Z,102204.00
2019-03-29T12:08:19.711Z,102198.00
2019-03-29T12:10:52.711Z,102197.00
2019-03-29T12:13:35.066Z,102219.00
2019-03-29T12:15:59.959Z,102198.00
2019-03-29T12:18:32.898Z,102194.00
2019-03-29T12:21:06.121Z,102199.00
2019-03-29T12:23:39.073Z,102197.00
2019-03-29T12:26:12.234Z,102195.00
2019-03-29T12:28:45.551Z,102187.00
2019-03-29T12:31:19.258Z,102184.00
2019-03-29T12:33:52.435Z,102181.00
2019-03-29T12:36:25.115Z,102182.00
2019-03-29T12:38:58.000Z,102184.00
2019-03-29T12:41:30.980Z,102178.00
2019-03-29T12:44:03.773Z,102190.00
2019-03-29T12:46:36.848Z,102184.00
2019-03-29T12:49:09.742Z,102183.00
2019-03-29T12:51:46.349Z,102188.00
2019-03-29T12:54:17.159Z,102188.00
2019-03-29T12:56:50.387Z,102187.00
2019-03-29T12:59:23.639Z,102197.00
2019-03-29T13:01:56.755Z,102192.00
2019-03-29T13:04:29.935Z,102186.00
2019-03-29T13:07:02.903Z,102192.00
2019-03-29T13:09:39.556Z,102191.00
2019-03-29T13:12:10.322Z,102192.00
2019-03-29T13:14:43.627Z,102195.00
2019-03-29T13:17:16.574Z,102186.00
2019-03-29T13:19:49.735Z,102188.00
2019-03-29T13:22:23.015Z,102186.00
2019-03-29T13:24:55.991Z,102181.00
2019-03-29T13:27:28.935Z,102189.00
2019-03-29T13:30:01.857Z,102193.00
2019-03-29T13:32:35.488Z,102176.00
2019-03-29T13:35:09.777Z,102176.00
2019-03-29T13:37:42.643Z,102173.00
2019-03-29T13:40:16.100Z,102174.00
2019-03-29T13:42:49.036Z,102177.00
2019-03-29T13:45:22.216Z,102161.00
2019-03-29T13:47:55.620Z,102158.00
2019-03-29T13:50:28.738Z,102155.00
2019-03-29T13:53:04.445Z,102159.00
2019-03-29T13:55:37.564Z,102159.00
2019-03-29T13:58:10.686Z,102146.00
2019-03-29T14:00:43.716Z,102142.00
2019-03-29T14:03:16.667Z,102138.00
2019-03-29T14:05:49.592Z,102137.00
2019-03-29T14:08:23.786Z,102134.00
2019-03-29T14:10:56.450Z,102128.00
2019-03-29T14:13:30.065Z,102120.00
2019-03-29T14:16:02.988Z,102111.00
2019-03-29T14:18:36.243Z,102116.00
2019-03-29T14:21:09.160Z,102110.00
2019-03-29T14:23:42.929Z,102111.00
2019-03-29T14:26:16.343Z,102114.00
2019-03-29T14:28:49.326Z,102104.00
2019-03-29T14:31:22.102Z,102099.00
2019-03-29T14:33:56.752Z,102110.00
2019-03-29T14:36:36.303Z,102098.00
2019-03-29T14:39:10.111Z,102097.00
2019-03-29T14:41:43.077Z,102109.00
2019-03-29T14:44:16.302Z,102101.00
2019-03-29T14:46:49.945Z,102105.00
2019-03-29T14:49:22.734Z,102111.00
2019-03-29T14:51:55.944Z,102103.00
2019-03-29T14:54:28.828Z,102088.00
2019-03-29T14:57:01.683Z,102084.00
2019-03-29T14:59:34.861Z,102092.00
2019-03-29T15:02:08.491Z,102088.00
2019-03-29T15:04:41.513Z,102088.00
2019-03-29T15:07:14.370Z,102095.00
2019-03-29T15:09:47.421Z,102075.00
2019-03-29T15:12:20.347Z,102066.00
2019-03-29T15:15:05.601Z,102065.00
2019-03-29T15:17:27.889Z,102069.00
2019-03-29T15:20:00.741Z,102070.00
2019-03-29T15:22:34.152Z,102075.00
2019-03-29T15:25:07.525Z,102065.00
2019-03-29T15:27:40.299Z,102058.00
2019-03-29T15:30:13.717Z,102054.00
2019-03-29T15:32:47.275Z,102061.00
2019-03-29T15:35:20.986Z,102066.00
2019-03-29T15:37:54.119Z,102055.00
2019-03-29T15:40:27.081Z,102043.00
2019-03-29T15:43:00.067Z,102044.00
2019-03-29T15:45:32.872Z,102059.00
2019-03-29T15:48:05.973Z,102064.00
2019-03-29T15:50:38.818Z,102060.00
2019-03-29T15:53:11.710Z,102051.00
2019-03-29T15:55:44.595Z,102053.00
2019-03-29T15:58:18.998Z,102046.00
2019-03-29T16:00:52.917Z,102031.00
2019-03-29T16:03:25.885Z,102036.00
2019-03-29T16:05:58.800Z,102036.00
2019-03-29T16:08:32.042Z,102043.00
2019-03-29T16:11:05.014Z,102040.00
2019-03-29T16:13:38.138Z,102048.00
2019-03-29T16:16:10.821Z,102046.00
2019-03-29T16:18:44.271Z,102047.00
2019-03-29T16:21:17.116Z,102045.00
2019-03-29T16:23:50.111Z,102045.00
2019-03-29T16:26:22.943Z,102058.00
2019-03-29T16:28:55.939Z,102050.00
2019-03-29T16:31:28.881Z,102065.00
2019-03-29T16:34:02.064Z,102067.00
2019-03-29T16:36:37.630Z,102064.00
2019-03-29T16:39:11.729Z,102073.00
2019-03-29T16:41:44.712Z,102075.00
2019-03-29T16:44:17.778Z,102081.00
2019-03-29T16:46:50.663Z,102079.00
2019-03-29T16:49:23.524Z,102081.00
2019-03-29T16:51:56.456Z,102079.00
2019-03-29T16:54:29.644Z,102081.00
2019-03-29T16:57:02.633Z,102080.00
2019-03-29T16:59:35.820Z,102089.00
2019-03-29T17:02:08.590Z,102089.00
2019-03-29T17:04:41.518Z,102092.00
2019-03-29T17:07:14.578Z,102099.00
2019-03-29T17:09:48.216Z,102091.00
2019-03-29T17:12:21.151Z,102084.00
2019-03-29T17:14:54.730Z,102080.00
2019-03-29T17:17:28.053Z,102084.00
2019-03-29T17:20:01.056Z,102080.00
2019-03-29T17:22:33.922Z,102082.00
2019-03-29T17:25:08.026Z,102090.00
2019-03-29T17:27:40.933Z,102093.00
2019-03-29T17:30:15.401Z,102093.00
2019-03-29T17:32:48.328Z,102095.00
2019-03-29T17:35:21.559Z,102095.00
2019-03-29T17:37:54.512Z,102104.00
2019-03-29T17:40:27.680Z,102097.00
2019-03-29T17:43:00.358Z,102096.00
2019-03-29T17:45:33.726Z,102112.00
2019-03-29T17:48:06.647Z,102109.00
2019-03-29T17:50:39.449Z,102110.00
2019-03-29T17:53:12.475Z,102117.00
2019-03-29T17:55:45.408Z,102104.00
2019-03-29T17:58:18.659Z,102099.00
2019-03-29T18:00:51.909Z,102107.00
2019-03-29T18:03:25.136Z,102112.00
2019-03-29T18:05:58.031Z,102102.00
2019-03-29T18:08:31.187Z,102103.00
2019-03-29T18:11:04.184Z,102111.00
2019-03-29T18:13:37.317Z,102111.00
2019-03-29T18:16:10.130Z,102114.00
2019-03-29T18:18:43.364Z,102118.00
2019-03-29T18:21:16.313Z,102119.00
2019-03-29T18:23:49.412Z,102117.00
2019-03-29T18:26:22.173Z,102120.00
2019-03-29T18:28:55.451Z,102117.00
2019-03-29T18:31:28.677Z,102119.00
2019-03-29T18:34:02.058Z,102116.00
2019-03-29T18:36:35.154Z,102121.00
2019-03-29T18:39:09.476Z,102126.00
2019-03-29T18:41:42.559Z,102117.00
2019-03-29T18:44:15.618Z,102115.00
2019-03-29T18:46:49.234Z,102121.00
2019-03-29T18:49:22.648Z,102130.00
2019-03-29T18:51:55.616Z,102125.00
2019-03-29T18:54:28.596Z,102128.00
2019-03-29T18:57:01.394Z,102131.00
2019-03-29T18:59:34.457Z,102129.00
2019-03-29T19:02:07.359Z,102126.00
2019-03-29T19:04:40.474Z,102134.00
2019-03-29T19:07:13.559Z,102131.00
2019-03-29T19:09:47.156Z,102126.00
2019-03-29T19:12:20.156Z,102135.00
2019-03-29T19:14:53.220Z,102137.00
2019-03-29T19:17:26.101Z,102129.00
2019-03-29T19:19:59.107Z,102139.00
2019-03-29T19:22:32.223Z,102048.00
2019-03-29T19:25:05.052Z,102130.00
2019-03-29T19:27:38.193Z,102134.00
2019-03-29T19:30:12.199Z,102127.00
2019-03-29T19:32:45.240Z,102129.00
2019-03-29T19:35:18.025Z,102127.00
2019-03-29T19:37:50.693Z,102118.00
2019-03-29T19:40:23.902Z,102121.00
2019-03-29T19:42:56.799Z,102122.00
2019-03-29T19:45:29.958Z,102120.00
2019-03-29T19:48:03.281Z,102120.00
2019-03-29T19:50:36.402Z,102130.00
2019-03-29T19:53:09.222Z,102132.00
2019-03-29T19:55:42.290Z,102136.00
2019-03-29T19:58:15.087Z,102135.00
2019-03-29T20:00:48.311Z,102139.00
2019-03-29T20:03:21.311Z,102153.00
2019-03-29T20:05:54.815Z,102149.00
2019-03-29T20:08:27.699Z,102142.00
2019-03-29T20:11:00.900Z,102142.00
2019-03-29T20:13:33.909Z,102131.00
2019-03-29T20:16:07.106Z,102135.00
2019-03-29T20:18:40.143Z,102141.00
2019-03-29T20:21:13.224Z,102136.00
2019-03-29T20:23:46.020Z,102142.00
2019-03-29T20:26:19.230Z,102141.00
2019-03-29T20:28:52.101Z,102138.00
2019-03-29T20:31:25.038Z,102148.00
2019-03-29T20:33:57.964Z,102140.00
2019-03-29T20:36:31.194Z,102145.00
2019-03-29T20:39:04.139Z,102138.00
2019-03-29T20:41:38.089Z,102147.00
2019-03-29T20:44:10.925Z,102139.00
2019-03-29T20:46:44.179Z,102158.00
2019-03-29T20:49:16.991Z,102156.00
2019-03-29T20:51:50.108Z,102147.00
2019-03-29T20:54:23.083Z,102150.00
2019-03-29T20:56:56.085Z,102159.00
2019-03-29T20:59:29.305Z,102158.00
2019-03-29T21:02:02.251Z,102149.00
2019-03-29T21:04:36.142Z,102172.00
2019-03-29T21:07:09.611Z,102159.00
2019-03-29T21:09:42.452Z,102162.00
2019-03-29T21:12:15.629Z,102162.00
2019-03-29T21:14:48.594Z,102160.00
2019-03-29T21:17:21.671Z,102152.00
2019-03-29T21:19:54.574Z,102154.00
2019-03-29T21:22:27.434Z,102160.00
2019-03-29T21:25:00.563Z,102158.00
2019-03-29T21:27:33.325Z,102157.00
2019-03-29T21:30:06.310Z,102155.00
2019-03-29T21:32:39.105Z,102152.00
2019-03-29T21:35:12.371Z,102132.00
2019-03-29T21:37:45.290Z,102144.00
2019-03-29T21:40:19.639Z,102141.00
2019-03-29T21:42:52.486Z,102150.00
2019-03-29T21:45:28.988Z,102147.00
2019-03-29T21:48:04.843Z,102161.00
2019-03-29T21:50:34.626Z,102152.00
2019-03-29T21:53:08.204Z,102156.00
2019-03-29T21:55:41.106Z,102163.00
2019-03-29T21:58:14.187Z,102149.00
2019-03-29T22:00:47.091Z,102163.00
2019-03-29T22:03:20.460Z,102159.00
2019-03-29T22:05:53.133Z,102159.00
2019-03-29T22:08:27.244Z,102162.00
2019-03-29T22:11:00.963Z,102153.00
2019-03-29T22:13:34.066Z,102152.00
2019-03-29T22:16:07.048Z,102162.00
2019-03-29T22:18:40.089Z,102150.00
2019-03-29T22:21:13.047Z,102165.00
2019-03-29T22:23:46.208Z,102159.00
2019-03-29T22:26:19.396Z,102169.00
2019-03-29T22:28:52.391Z,102168.00
2019-03-29T22:31:25.389Z,102153.00
2019-03-29T22:33:59.149Z,102154.00
2019-03-29T22:36:32.161Z,102147.00
2019-03-29T22:39:05.366Z,102145.00
2019-03-29T22:41:38.227Z,102143.00
2019-03-29T22:44:11.122Z,102144.00
2019-03-29T22:46:44.029Z,102142.00
2019-03-29T22:49:16.975Z,102131.00
2019-03-29T22:51:49.905Z,102134.00
2019-03-29T22:54:24.292Z,102141.00
2019-03-29T22:56:57.071Z,102135.00
2019-03-29T22:59:30.979Z,102121.00
2019-03-29T23:02:03.874Z,102119.00
2019-03-29T23:04:36.938Z,102127.00
2019-03-29T23:07:09.855Z,102111.00
2019-03-29T23:09:43.402Z,102112.00
2019-03-29T23:12:16.444Z,102114.00
2019-03-29T23:14:49.320Z,102108.00
2019-03-29T23:17:22.543Z,102096.00
2019-03-29T23:19:55.605Z,102099.00
2019-03-29T23:22:28.600Z,102089.00
2019-03-29T23:25:01.784Z,102094.00
2019-03-29T23:27:34.785Z,102083.00
2019-03-29T23:30:11.210Z,102085.00
2019-03-29T23:32:44.102Z,102079.00
2019-03-29T23:35:17.334Z,102081.00
2019-03-29T23:37:50.078Z,102088.00
2019-03-29T23:40:23.381Z,102073.00
2019-03-29T23:42:56.638Z,102083.00
2019-03-29T23:45:29.569Z,102089.00
2019-03-29T23:48:02.751Z,102090.00
2019-03-29T23:50:35.516Z,102104.00
2019-03-29T23:53:08.516Z,102106.00
2019-03-29T23:55:41.315Z,102093.00
2019-03-29T23:58:14.424Z,102097.00
